sensor_id;sensor_type;location;lat;lon;timestamp;P1;durP1;ratioP1;P2;durP2;ratioP2
17214;SDS011;8723;51.502;6.918;2023-08-08T00:01:49;4.47;;;2.60;;
17214;SDS011;8723;51.502;6.918;2023-08-08T00:04:17;3.45;;;2.72;;
17214;SDS011;8723;51.502;6.918;2023-08-08T00:06:45;3.37;;;3.03;;
17214;SDS011;8723;51.502;6.918;2023-08-08T00:09:12;4.15;;;2.95;;
17214;SDS011;8723;51.502;6.918;2023-08-08T00:11:39;4.70;;;3.00;;
17214;SDS011;8723;51.502;6.918;2023-08-08T00:14:06;4.80;;;3.03;;
17214;SDS011;8723;51.502;6.918;2023-08-08T00:16:33;3.55;;;2.95;;
17214;SDS011;8723;51.502;6.918;2023-08-08T00:19:00;4.20;;;3.28;;
17214;SDS011;8723;51.502;6.918;2023-08-08T00:21:26;5.55;;;3.22;;
17214;SDS011;8723;51.502;6.918;2023-08-08T00:23:54;3.53;;;3.20;;
17214;SDS011;8723;51.502;6.918;2023-08-08T00:26:21;3.72;;;3.08;;
17214;SDS011;8723;51.502;6.918;2023-08-08T00:28:48;3.72;;;3.40;;
17214;SDS011;8723;51.502;6.918;2023-08-08T00:31:15;4.00;;;3.20;;
17214;SDS011;8723;51.502;6.918;2023-08-08T00:33:44;4.97;;;3.00;;
17214;SDS011;8723;51.502;6.918;2023-08-08T00:36:11;3.92;;;3.40;;
17214;SDS011;8723;51.502;6.918;2023-08-08T00:38:38;4.15;;;3.25;;
17214;SDS011;8723;51.502;6.918;2023-08-08T00:41:06;3.78;;;3.40;;
17214;SDS011;8723;51.502;6.918;2023-08-08T00:43:33;3.88;;;3.20;;
17214;SDS011;8723;51.502;6.918;2023-08-08T00:46:00;5.10;;;3.47;;
17214;SDS011;8723;51.502;6.918;2023-08-08T00:48:26;5.22;;;3.80;;
17214;SDS011;8723;51.502;6.918;2023-08-08T00:50:53;4.90;;;3.22;;
17214;SDS011;8723;51.502;6.918;2023-08-08T00:53:20;4.13;;;3.13;;
17214;SDS011;8723;51.502;6.918;2023-08-08T00:55:51;5.53;;;3.42;;
17214;SDS011;8723;51.502;6.918;2023-08-08T00:58:20;3.30;;;3.00;;
17214;SDS011;8723;51.502;6.918;2023-08-08T01:00:47;4.85;;;3.38;;
17214;SDS011;8723;51.502;6.918;2023-08-08T01:03:14;5.40;;;3.60;;
17214;SDS011;8723;51.502;6.918;2023-08-08T01:05:42;5.07;;;3.20;;
17214;SDS011;8723;51.502;6.918;2023-08-08T01:08:14;2.97;;;2.72;;
17214;SDS011;8723;51.502;6.918;2023-08-08T01:10:46;4.20;;;2.97;;
17214;SDS011;8723;51.502;6.918;2023-08-08T01:13:14;2.67;;;2.47;;
17214;SDS011;8723;51.502;6.918;2023-08-08T01:15:46;3.58;;;2.35;;
17214;SDS011;8723;51.502;6.918;2023-08-08T01:18:14;3.20;;;2.33;;
17214;SDS011;8723;51.502;6.918;2023-08-08T01:20:42;3.78;;;2.40;;
17214;SDS011;8723;51.502;6.918;2023-08-08T01:23:11;4.00;;;2.50;;
17214;SDS011;8723;51.502;6.918;2023-08-08T01:25:44;2.97;;;2.60;;
17214;SDS011;8723;51.502;6.918;2023-08-08T01:28:12;4.07;;;2.43;;
17214;SDS011;8723;51.502;6.918;2023-08-08T01:30:38;3.15;;;2.20;;
17214;SDS011;8723;51.502;6.918;2023-08-08T01:33:05;3.97;;;2.60;;
17214;SDS011;8723;51.502;6.918;2023-08-08T01:35:35;3.53;;;2.80;;
17214;SDS011;8723;51.502;6.918;2023-08-08T01:38:08;2.92;;;2.30;;
17214;SDS011;8723;51.502;6.918;2023-08-08T01:40:37;3.75;;;2.58;;
17214;SDS011;8723;51.502;6.918;2023-08-08T01:43:08;4.30;;;2.80;;
17214;SDS011;8723;51.502;6.918;2023-08-08T01:45:39;3.63;;;2.57;;
17214;SDS011;8723;51.502;6.918;2023-08-08T01:48:09;3.38;;;2.58;;
17214;SDS011;8723;51.502;6.918;2023-08-08T01:50:39;3.85;;;2.58;;
17214;SDS011;8723;51.502;6.918;2023-08-08T01:53:09;4.70;;;3.00;;
17214;SDS011;8723;51.502;6.918;2023-08-08T01:55:38;3.20;;;2.60;;
17214;SDS011;8723;51.502;6.918;2023-08-08T01:58:09;4.73;;;3.07;;
17214;SDS011;8723;51.502;6.918;2023-08-08T02:00:37;5.55;;;2.67;;
17214;SDS011;8723;51.502;6.918;2023-08-08T02:03:10;3.75;;;2.58;;
17214;SDS011;8723;51.502;6.918;2023-08-08T02:05:39;6.07;;;3.10;;
17214;SDS011;8723;51.502;6.918;2023-08-08T02:08:09;4.40;;;2.50;;
17214;SDS011;8723;51.502;6.918;2023-08-08T02:10:36;3.10;;;2.33;;
17214;SDS011;8723;51.502;6.918;2023-08-08T02:13:02;4.22;;;2.60;;
17214;SDS011;8723;51.502;6.918;2023-08-08T02:15:32;4.07;;;2.50;;
17214;SDS011;8723;51.502;6.918;2023-08-08T02:18:01;4.85;;;3.15;;
17214;SDS011;8723;51.502;6.918;2023-08-08T02:20:31;3.50;;;3.20;;
17214;SDS011;8723;51.502;6.918;2023-08-08T02:23:01;3.38;;;3.00;;
17214;SDS011;8723;51.502;6.918;2023-08-08T02:25:30;6.37;;;2.70;;
17214;SDS011;8723;51.502;6.918;2023-08-08T02:27:59;3.70;;;2.80;;
17214;SDS011;8723;51.502;6.918;2023-08-08T02:30:27;7.90;;;2.97;;
17214;SDS011;8723;51.502;6.918;2023-08-08T02:32:58;3.55;;;2.80;;
17214;SDS011;8723;51.502;6.918;2023-08-08T02:35:26;4.17;;;2.77;;
17214;SDS011;8723;51.502;6.918;2023-08-08T02:37:53;4.50;;;2.90;;
17214;SDS011;8723;51.502;6.918;2023-08-08T02:40:19;5.20;;;3.25;;
17214;SDS011;8723;51.502;6.918;2023-08-08T02:42:48;3.72;;;2.88;;
17214;SDS011;8723;51.502;6.918;2023-08-08T02:45:15;5.25;;;2.78;;
17214;SDS011;8723;51.502;6.918;2023-08-08T02:47:42;4.88;;;2.97;;
17214;SDS011;8723;51.502;6.918;2023-08-08T02:50:10;4.47;;;2.83;;
17214;SDS011;8723;51.502;6.918;2023-08-08T02:52:37;3.60;;;2.80;;
17214;SDS011;8723;51.502;6.918;2023-08-08T02:55:04;4.95;;;3.03;;
17214;SDS011;8723;51.502;6.918;2023-08-08T02:57:31;4.78;;;3.20;;
17214;SDS011;8723;51.502;6.918;2023-08-08T02:59:58;3.70;;;2.85;;
17214;SDS011;8723;51.502;6.918;2023-08-08T03:02:26;4.90;;;2.88;;
17214;SDS011;8723;51.502;6.918;2023-08-08T03:04:55;3.30;;;3.00;;
17214;SDS011;8723;51.502;6.918;2023-08-08T03:07:26;4.40;;;2.85;;
17214;SDS011;8723;51.502;6.918;2023-08-08T03:09:56;5.40;;;2.90;;
17214;SDS011;8723;51.502;6.918;2023-08-08T03:12:25;5.10;;;3.05;;
17214;SDS011;8723;51.502;6.918;2023-08-08T03:14:54;5.30;;;2.70;;
17214;SDS011;8723;51.502;6.918;2023-08-08T03:17:21;4.20;;;3.10;;
17214;SDS011;8723;51.502;6.918;2023-08-08T03:19:48;5.03;;;3.33;;
17214;SDS011;8723;51.502;6.918;2023-08-08T03:22:15;4.97;;;3.42;;
17214;SDS011;8723;51.502;6.918;2023-08-08T03:24:43;5.63;;;3.75;;
17214;SDS011;8723;51.502;6.918;2023-08-08T03:27:10;15.90;;;5.18;;
17214;SDS011;8723;51.502;6.918;2023-08-08T03:29:37;6.55;;;4.30;;
17214;SDS011;8723;51.502;6.918;2023-08-08T03:32:04;6.82;;;4.78;;
17214;SDS011;8723;51.502;6.918;2023-08-08T03:34:31;7.20;;;4.85;;
17214;SDS011;8723;51.502;6.918;2023-08-08T03:36:58;6.88;;;4.82;;
17214;SDS011;8723;51.502;6.918;2023-08-08T03:39:25;6.53;;;4.63;;
17214;SDS011;8723;51.502;6.918;2023-08-08T03:41:53;8.10;;;5.13;;
17214;SDS011;8723;51.502;6.918;2023-08-08T03:44:20;9.77;;;5.35;;
17214;SDS011;8723;51.502;6.918;2023-08-08T03:46:46;8.70;;;5.55;;
17214;SDS011;8723;51.502;6.918;2023-08-08T03:49:14;8.82;;;5.72;;
17214;SDS011;8723;51.502;6.918;2023-08-08T03:51:41;6.50;;;5.10;;
17214;SDS011;8723;51.502;6.918;2023-08-08T03:54:08;7.87;;;5.23;;
17214;SDS011;8723;51.502;6.918;2023-08-08T03:56:35;7.53;;;5.60;;
17214;SDS011;8723;51.502;6.918;2023-08-08T03:59:03;8.48;;;5.43;;
17214;SDS011;8723;51.502;6.918;2023-08-08T04:01:30;9.05;;;5.32;;
17214;SDS011;8723;51.502;6.918;2023-08-08T04:03:57;10.73;;;6.10;;
17214;SDS011;8723;51.502;6.918;2023-08-08T04:06:24;9.10;;;5.53;;
17214;SDS011;8723;51.502;6.918;2023-08-08T04:08:50;8.50;;;5.95;;
17214;SDS011;8723;51.502;6.918;2023-08-08T04:11:17;8.73;;;6.00;;
17214;SDS011;8723;51.502;6.918;2023-08-08T04:13:44;9.27;;;5.63;;
17214;SDS011;8723;51.502;6.918;2023-08-08T04:16:12;8.40;;;5.20;;
17214;SDS011;8723;51.502;6.918;2023-08-08T04:18:39;9.40;;;5.53;;
17214;SDS011;8723;51.502;6.918;2023-08-08T04:21:06;7.22;;;5.25;;
17214;SDS011;8723;51.502;6.918;2023-08-08T04:23:33;7.87;;;5.10;;
17214;SDS011;8723;51.502;6.918;2023-08-08T04:26:00;9.73;;;5.80;;
17214;SDS011;8723;51.502;6.918;2023-08-08T04:28:26;9.68;;;5.53;;
17214;SDS011;8723;51.502;6.918;2023-08-08T04:30:53;8.73;;;5.18;;
17214;SDS011;8723;51.502;6.918;2023-08-08T04:33:21;7.28;;;5.55;;
17214;SDS011;8723;51.502;6.918;2023-08-08T04:35:48;8.77;;;5.68;;
17214;SDS011;8723;51.502;6.918;2023-08-08T04:38:15;7.38;;;5.72;;
17214;SDS011;8723;51.502;6.918;2023-08-08T04:40:41;8.85;;;5.95;;
17214;SDS011;8723;51.502;6.918;2023-08-08T04:43:08;8.18;;;5.95;;
17214;SDS011;8723;51.502;6.918;2023-08-08T04:45:35;8.13;;;5.93;;
17214;SDS011;8723;51.502;6.918;2023-08-08T04:48:02;8.90;;;6.07;;
17214;SDS011;8723;51.502;6.918;2023-08-08T04:50:30;10.10;;;6.47;;
17214;SDS011;8723;51.502;6.918;2023-08-08T04:52:57;8.32;;;6.18;;
17214;SDS011;8723;51.502;6.918;2023-08-08T04:55:24;8.65;;;6.55;;
17214;SDS011;8723;51.502;6.918;2023-08-08T04:57:51;9.63;;;5.90;;
17214;SDS011;8723;51.502;6.918;2023-08-08T05:00:18;10.95;;;7.05;;
17214;SDS011;8723;51.502;6.918;2023-08-08T05:02:45;10.35;;;6.90;;
17214;SDS011;8723;51.502;6.918;2023-08-08T05:05:11;9.65;;;6.55;;
17214;SDS011;8723;51.502;6.918;2023-08-08T05:07:39;10.43;;;7.13;;
17214;SDS011;8723;51.502;6.918;2023-08-08T05:10:06;9.70;;;7.20;;
17214;SDS011;8723;51.502;6.918;2023-08-08T05:12:33;11.60;;;7.57;;
17214;SDS011;8723;51.502;6.918;2023-08-08T05:15:00;11.03;;;7.20;;
17214;SDS011;8723;51.502;6.918;2023-08-08T05:17:29;12.07;;;8.15;;
17214;SDS011;8723;51.502;6.918;2023-08-08T05:19:56;13.60;;;8.43;;
17214;SDS011;8723;51.502;6.918;2023-08-08T05:22:23;13.55;;;7.88;;
17214;SDS011;8723;51.502;6.918;2023-08-08T05:24:51;9.88;;;8.20;;
17214;SDS011;8723;51.502;6.918;2023-08-08T05:27:18;9.30;;;7.70;;
17214;SDS011;8723;51.502;6.918;2023-08-08T05:29:44;10.40;;;7.90;;
17214;SDS011;8723;51.502;6.918;2023-08-08T05:32:11;11.48;;;9.43;;
17214;SDS011;8723;51.502;6.918;2023-08-08T05:34:38;11.40;;;8.13;;
17214;SDS011;8723;51.502;6.918;2023-08-08T05:37:05;13.40;;;9.53;;
17214;SDS011;8723;51.502;6.918;2023-08-08T05:39:32;10.57;;;8.25;;
17214;SDS011;8723;51.502;6.918;2023-08-08T05:42:04;13.75;;;9.55;;
17214;SDS011;8723;51.502;6.918;2023-08-08T05:44:31;13.75;;;9.50;;
17214;SDS011;8723;51.502;6.918;2023-08-08T05:46:58;13.57;;;10.10;;
17214;SDS011;8723;51.502;6.918;2023-08-08T05:49:24;13.27;;;9.43;;
17214;SDS011;8723;51.502;6.918;2023-08-08T05:51:51;13.63;;;9.05;;
17214;SDS011;8723;51.502;6.918;2023-08-08T05:54:18;11.27;;;9.30;;
17214;SDS011;8723;51.502;6.918;2023-08-08T05:56:45;15.18;;;11.02;;
17214;SDS011;8723;51.502;6.918;2023-08-08T05:59:13;12.80;;;11.03;;
17214;SDS011;8723;51.502;6.918;2023-08-08T06:01:40;14.40;;;11.75;;
17214;SDS011;8723;51.502;6.918;2023-08-08T06:04:07;12.52;;;10.13;;
17214;SDS011;8723;51.502;6.918;2023-08-08T06:06:34;16.75;;;12.13;;
17214;SDS011;8723;51.502;6.918;2023-08-08T06:09:00;13.82;;;10.63;;
17214;SDS011;8723;51.502;6.918;2023-08-08T06:11:27;12.80;;;11.32;;
17214;SDS011;8723;51.502;6.918;2023-08-08T06:13:54;14.45;;;10.65;;
17214;SDS011;8723;51.502;6.918;2023-08-08T06:16:22;15.40;;;11.55;;
17214;SDS011;8723;51.502;6.918;2023-08-08T06:18:49;13.40;;;10.75;;
17214;SDS011;8723;51.502;6.918;2023-08-08T06:21:17;15.93;;;12.10;;
17214;SDS011;8723;51.502;6.918;2023-08-08T06:23:44;17.08;;;11.50;;
17214;SDS011;8723;51.502;6.918;2023-08-08T06:26:12;13.70;;;10.93;;
17214;SDS011;8723;51.502;6.918;2023-08-08T06:28:39;15.80;;;12.15;;
17214;SDS011;8723;51.502;6.918;2023-08-08T06:31:06;13.95;;;10.93;;
17214;SDS011;8723;51.502;6.918;2023-08-08T06:33:34;13.07;;;11.55;;
17214;SDS011;8723;51.502;6.918;2023-08-08T06:36:01;13.98;;;12.13;;
17214;SDS011;8723;51.502;6.918;2023-08-08T06:38:29;13.73;;;12.27;;
17214;SDS011;8723;51.502;6.918;2023-08-08T06:40:58;14.38;;;12.05;;
17214;SDS011;8723;51.502;6.918;2023-08-08T06:43:25;14.37;;;11.33;;
17214;SDS011;8723;51.502;6.918;2023-08-08T06:45:52;15.48;;;12.68;;
17214;SDS011;8723;51.502;6.918;2023-08-08T06:48:19;13.95;;;11.45;;
17214;SDS011;8723;51.502;6.918;2023-08-08T06:50:47;13.80;;;12.25;;
17214;SDS011;8723;51.502;6.918;2023-08-08T06:53:14;13.32;;;10.70;;
17214;SDS011;8723;51.502;6.918;2023-08-08T06:55:40;14.60;;;12.00;;
17214;SDS011;8723;51.502;6.918;2023-08-08T06:58:07;15.67;;;12.13;;
17214;SDS011;8723;51.502;6.918;2023-08-08T07:00:34;17.92;;;14.82;;
17214;SDS011;8723;51.502;6.918;2023-08-08T07:03:01;15.15;;;13.63;;
17214;SDS011;8723;51.502;6.918;2023-08-08T07:05:28;15.88;;;13.40;;
17214;SDS011;8723;51.502;6.918;2023-08-08T07:07:56;13.93;;;12.48;;
17214;SDS011;8723;51.502;6.918;2023-08-08T07:10:23;14.27;;;12.77;;
17214;SDS011;8723;51.502;6.918;2023-08-08T07:12:50;14.45;;;11.45;;
17214;SDS011;8723;51.502;6.918;2023-08-08T07:15:17;13.68;;;12.23;;
17214;SDS011;8723;51.502;6.918;2023-08-08T07:17:44;16.83;;;12.57;;
17214;SDS011;8723;51.502;6.918;2023-08-08T07:20:11;13.50;;;11.05;;
17214;SDS011;8723;51.502;6.918;2023-08-08T07:22:39;16.15;;;11.48;;
17214;SDS011;8723;51.502;6.918;2023-08-08T07:25:08;13.02;;;11.57;;
17214;SDS011;8723;51.502;6.918;2023-08-08T07:27:36;15.23;;;11.27;;
17214;SDS011;8723;51.502;6.918;2023-08-08T07:30:03;11.68;;;10.13;;
17214;SDS011;8723;51.502;6.918;2023-08-08T07:32:31;16.48;;;10.23;;
17214;SDS011;8723;51.502;6.918;2023-08-08T07:34:59;10.43;;;9.20;;
17214;SDS011;8723;51.502;6.918;2023-08-08T07:37:27;13.15;;;10.00;;
17214;SDS011;8723;51.502;6.918;2023-08-08T07:39:54;10.77;;;8.70;;
17214;SDS011;8723;51.502;6.918;2023-08-08T07:42:22;10.45;;;8.40;;
17214;SDS011;8723;51.502;6.918;2023-08-08T07:44:49;10.10;;;7.80;;
17214;SDS011;8723;51.502;6.918;2023-08-08T07:47:16;9.27;;;7.40;;
17214;SDS011;8723;51.502;6.918;2023-08-08T07:49:43;8.50;;;6.90;;
17214;SDS011;8723;51.502;6.918;2023-08-08T07:52:10;9.02;;;7.03;;
17214;SDS011;8723;51.502;6.918;2023-08-08T07:54:36;12.20;;;6.95;;
17214;SDS011;8723;51.502;6.918;2023-08-08T07:57:03;7.90;;;6.28;;
17214;SDS011;8723;51.502;6.918;2023-08-08T07:59:32;6.57;;;5.97;;
17214;SDS011;8723;51.502;6.918;2023-08-08T08:01:59;10.13;;;6.10;;
17214;SDS011;8723;51.502;6.918;2023-08-08T08:04:25;8.18;;;5.70;;
17214;SDS011;8723;51.502;6.918;2023-08-08T08:06:52;9.40;;;5.90;;
17214;SDS011;8723;51.502;6.918;2023-08-08T08:09:19;9.00;;;5.55;;
17214;SDS011;8723;51.502;6.918;2023-08-08T08:11:45;8.55;;;5.00;;
17214;SDS011;8723;51.502;6.918;2023-08-08T08:14:12;6.40;;;4.72;;
17214;SDS011;8723;51.502;6.918;2023-08-08T08:16:40;9.20;;;4.60;;
17214;SDS011;8723;51.502;6.918;2023-08-08T08:19:07;7.22;;;4.55;;
17214;SDS011;8723;51.502;6.918;2023-08-08T08:21:34;8.13;;;4.38;;
17214;SDS011;8723;51.502;6.918;2023-08-08T08:24:01;6.97;;;4.30;;
17214;SDS011;8723;51.502;6.918;2023-08-08T08:26:28;8.25;;;4.00;;
17214;SDS011;8723;51.502;6.918;2023-08-08T08:28:55;6.90;;;4.20;;
17214;SDS011;8723;51.502;6.918;2023-08-08T08:31:21;4.20;;;3.70;;
17214;SDS011;8723;51.502;6.918;2023-08-08T08:33:49;6.72;;;3.65;;
17214;SDS011;8723;51.502;6.918;2023-08-08T08:36:16;6.63;;;3.65;;
17214;SDS011;8723;51.502;6.918;2023-08-08T08:38:43;5.93;;;3.67;;
17214;SDS011;8723;51.502;6.918;2023-08-08T08:41:11;7.75;;;3.67;;
17214;SDS011;8723;51.502;6.918;2023-08-08T08:43:43;5.20;;;3.08;;
17214;SDS011;8723;51.502;6.918;2023-08-08T08:46:10;6.57;;;3.42;;
17214;SDS011;8723;51.502;6.918;2023-08-08T08:48:37;6.00;;;3.35;;
17214;SDS011;8723;51.502;6.918;2023-08-08T08:51:06;4.77;;;3.20;;
17214;SDS011;8723;51.502;6.918;2023-08-08T08:53:33;6.18;;;2.92;;
17214;SDS011;8723;51.502;6.918;2023-08-08T08:56:04;7.00;;;3.15;;
17214;SDS011;8723;51.502;6.918;2023-08-08T08:58:31;3.97;;;3.03;;
17214;SDS011;8723;51.502;6.918;2023-08-08T09:00:58;6.23;;;3.30;;
17214;SDS011;8723;51.502;6.918;2023-08-08T09:03:26;5.53;;;2.90;;
17214;SDS011;8723;51.502;6.918;2023-08-08T09:05:53;4.65;;;2.70;;
17214;SDS011;8723;51.502;6.918;2023-08-08T09:08:22;6.90;;;3.17;;
17214;SDS011;8723;51.502;6.918;2023-08-08T09:10:48;4.88;;;2.55;;
17214;SDS011;8723;51.502;6.918;2023-08-08T09:13:16;5.47;;;2.90;;
17214;SDS011;8723;51.502;6.918;2023-08-08T09:15:42;4.90;;;2.90;;
17214;SDS011;8723;51.502;6.918;2023-08-08T09:18:12;4.95;;;2.90;;
17214;SDS011;8723;51.502;6.918;2023-08-08T09:20:39;5.25;;;2.80;;
17214;SDS011;8723;51.502;6.918;2023-08-08T09:23:06;6.15;;;3.10;;
17214;SDS011;8723;51.502;6.918;2023-08-08T09:25:36;4.25;;;2.50;;
17214;SDS011;8723;51.502;6.918;2023-08-08T09:28:03;6.20;;;2.90;;
17214;SDS011;8723;51.502;6.918;2023-08-08T09:30:30;4.85;;;2.58;;
17214;SDS011;8723;51.502;6.918;2023-08-08T09:32:57;5.95;;;2.50;;
17214;SDS011;8723;51.502;6.918;2023-08-08T09:35:24;4.32;;;2.70;;
17214;SDS011;8723;51.502;6.918;2023-08-08T09:37:52;4.10;;;2.40;;
17214;SDS011;8723;51.502;6.918;2023-08-08T09:40:19;5.22;;;2.70;;
17214;SDS011;8723;51.502;6.918;2023-08-08T09:42:50;5.57;;;2.97;;
17214;SDS011;8723;51.502;6.918;2023-08-08T09:45:17;4.40;;;2.30;;
17214;SDS011;8723;51.502;6.918;2023-08-08T09:47:44;5.53;;;2.47;;
17214;SDS011;8723;51.502;6.918;2023-08-08T09:50:11;5.53;;;2.72;;
17214;SDS011;8723;51.502;6.918;2023-08-08T09:52:39;4.77;;;2.53;;
17214;SDS011;8723;51.502;6.918;2023-08-08T09:55:06;4.22;;;2.60;;
17214;SDS011;8723;51.502;6.918;2023-08-08T09:57:33;4.67;;;3.00;;
17214;SDS011;8723;51.502;6.918;2023-08-08T10:00:02;4.10;;;2.95;;
17214;SDS011;8723;51.502;6.918;2023-08-08T10:02:30;5.93;;;3.20;;
17214;SDS011;8723;51.502;6.918;2023-08-08T10:04:58;5.82;;;2.90;;
17214;SDS011;8723;51.502;6.918;2023-08-08T10:07:25;6.53;;;2.90;;
17214;SDS011;8723;51.502;6.918;2023-08-08T10:09:52;6.10;;;3.13;;
17214;SDS011;8723;51.502;6.918;2023-08-08T10:12:19;6.45;;;2.53;;
17214;SDS011;8723;51.502;6.918;2023-08-08T10:14:46;4.15;;;2.80;;
17214;SDS011;8723;51.502;6.918;2023-08-08T10:17:15;6.03;;;2.70;;
17214;SDS011;8723;51.502;6.918;2023-08-08T10:19:50;3.67;;;2.53;;
17214;SDS011;8723;51.502;6.918;2023-08-08T10:22:19;4.72;;;2.60;;
17214;SDS011;8723;51.502;6.918;2023-08-08T10:24:50;4.32;;;2.58;;
17214;SDS011;8723;51.502;6.918;2023-08-08T10:27:27;4.80;;;2.70;;
17214;SDS011;8723;51.502;6.918;2023-08-08T10:30:00;7.10;;;2.90;;
17214;SDS011;8723;51.502;6.918;2023-08-08T10:32:29;4.90;;;2.75;;
17214;SDS011;8723;51.502;6.918;2023-08-08T10:35:05;4.22;;;2.85;;
17214;SDS011;8723;51.502;6.918;2023-08-08T10:37:33;4.25;;;2.75;;
17214;SDS011;8723;51.502;6.918;2023-08-08T10:40:00;6.05;;;3.10;;
17214;SDS011;8723;51.502;6.918;2023-08-08T10:42:30;5.95;;;3.10;;
17214;SDS011;8723;51.502;6.918;2023-08-08T10:44:58;5.18;;;2.97;;
17214;SDS011;8723;51.502;6.918;2023-08-08T10:47:26;5.75;;;3.00;;
17214;SDS011;8723;51.502;6.918;2023-08-08T10:50:02;6.50;;;3.33;;
17214;SDS011;8723;51.502;6.918;2023-08-08T10:52:30;4.45;;;3.10;;
17214;SDS011;8723;51.502;6.918;2023-08-08T10:55:00;5.18;;;2.92;;
17214;SDS011;8723;51.502;6.918;2023-08-08T10:57:27;4.60;;;2.83;;
17214;SDS011;8723;51.502;6.918;2023-08-08T10:59:54;3.92;;;2.88;;
17214;SDS011;8723;51.502;6.918;2023-08-08T11:02:21;5.28;;;2.30;;
17214;SDS011;8723;51.502;6.918;2023-08-08T11:04:50;5.25;;;2.65;;
17214;SDS011;8723;51.502;6.918;2023-08-08T11:07:17;3.97;;;2.50;;
17214;SDS011;8723;51.502;6.918;2023-08-08T11:09:44;3.33;;;1.98;;
17214;SDS011;8723;51.502;6.918;2023-08-08T11:12:14;5.50;;;2.40;;
17214;SDS011;8723;51.502;6.918;2023-08-08T11:14:41;4.05;;;2.35;;
17214;SDS011;8723;51.502;6.918;2023-08-08T11:17:08;3.65;;;2.10;;
17214;SDS011;8723;51.502;6.918;2023-08-08T11:19:40;4.60;;;2.40;;
17214;SDS011;8723;51.502;6.918;2023-08-08T11:22:10;2.43;;;2.00;;
17214;SDS011;8723;51.502;6.918;2023-08-08T11:24:37;4.55;;;2.20;;
17214;SDS011;8723;51.502;6.918;2023-08-08T11:27:04;4.37;;;2.33;;
17214;SDS011;8723;51.502;6.918;2023-08-08T11:29:31;4.15;;;2.47;;
17214;SDS011;8723;51.502;6.918;2023-08-08T11:31:59;2.80;;;1.98;;
17214;SDS011;8723;51.502;6.918;2023-08-08T11:34:26;3.25;;;2.22;;
17214;SDS011;8723;51.502;6.918;2023-08-08T11:36:55;3.22;;;2.40;;
17214;SDS011;8723;51.502;6.918;2023-08-08T11:39:24;3.30;;;2.05;;
17214;SDS011;8723;51.502;6.918;2023-08-08T11:41:52;2.70;;;1.92;;
17214;SDS011;8723;51.502;6.918;2023-08-08T11:44:19;3.95;;;2.15;;
17214;SDS011;8723;51.502;6.918;2023-08-08T11:46:47;3.70;;;2.20;;
17214;SDS011;8723;51.502;6.918;2023-08-08T11:49:14;3.10;;;2.00;;
17214;SDS011;8723;51.502;6.918;2023-08-08T11:51:42;3.20;;;1.88;;
17214;SDS011;8723;51.502;6.918;2023-08-08T11:54:10;2.47;;;1.92;;
17214;SDS011;8723;51.502;6.918;2023-08-08T11:56:38;3.58;;;1.90;;
17214;SDS011;8723;51.502;6.918;2023-08-08T11:59:06;3.47;;;2.00;;
17214;SDS011;8723;51.502;6.918;2023-08-08T12:01:34;3.92;;;2.08;;
17214;SDS011;8723;51.502;6.918;2023-08-08T12:04:06;2.80;;;1.98;;
17214;SDS011;8723;51.502;6.918;2023-08-08T12:06:36;3.13;;;2.00;;
17214;SDS011;8723;51.502;6.918;2023-08-08T12:09:04;3.47;;;1.80;;
17214;SDS011;8723;51.502;6.918;2023-08-08T12:11:33;3.05;;;1.77;;
17214;SDS011;8723;51.502;6.918;2023-08-08T12:14:03;3.00;;;2.10;;
17214;SDS011;8723;51.502;6.918;2023-08-08T12:16:30;4.00;;;2.20;;
17214;SDS011;8723;51.502;6.918;2023-08-08T12:18:57;2.42;;;1.95;;
17214;SDS011;8723;51.502;6.918;2023-08-08T12:21:26;3.60;;;1.98;;
17214;SDS011;8723;51.502;6.918;2023-08-08T12:23:53;4.77;;;2.33;;
17214;SDS011;8723;51.502;6.918;2023-08-08T12:26:20;4.10;;;2.30;;
17214;SDS011;8723;51.502;6.918;2023-08-08T12:28:47;3.22;;;2.22;;
17214;SDS011;8723;51.502;6.918;2023-08-08T12:31:17;2.72;;;2.00;;
17214;SDS011;8723;51.502;6.918;2023-08-08T12:33:44;2.42;;;2.10;;
17214;SDS011;8723;51.502;6.918;2023-08-08T12:36:11;4.05;;;2.20;;
17214;SDS011;8723;51.502;6.918;2023-08-08T12:38:38;4.23;;;2.50;;
17214;SDS011;8723;51.502;6.918;2023-08-08T12:41:06;3.20;;;2.25;;
17214;SDS011;8723;51.502;6.918;2023-08-08T12:43:33;2.83;;;2.13;;
17214;SDS011;8723;51.502;6.918;2023-08-08T12:46:00;3.17;;;2.20;;
17214;SDS011;8723;51.502;6.918;2023-08-08T12:48:28;4.13;;;2.40;;
17214;SDS011;8723;51.502;6.918;2023-08-08T12:50:55;4.20;;;2.42;;
17214;SDS011;8723;51.502;6.918;2023-08-08T12:53:22;3.50;;;2.17;;
17214;SDS011;8723;51.502;6.918;2023-08-08T12:55:48;3.28;;;2.25;;
17214;SDS011;8723;51.502;6.918;2023-08-08T12:58:16;3.13;;;2.25;;
17214;SDS011;8723;51.502;6.918;2023-08-08T13:00:44;3.03;;;2.03;;
17214;SDS011;8723;51.502;6.918;2023-08-08T13:03:11;5.47;;;2.63;;
17214;SDS011;8723;51.502;6.918;2023-08-08T13:05:39;3.50;;;2.22;;
17214;SDS011;8723;51.502;6.918;2023-08-08T13:08:06;6.50;;;2.40;;
17214;SDS011;8723;51.502;6.918;2023-08-08T13:10:33;4.15;;;2.55;;
17214;SDS011;8723;51.502;6.918;2023-08-08T13:12:59;2.38;;;2.05;;
17214;SDS011;8723;51.502;6.918;2023-08-08T13:15:26;3.30;;;2.40;;
17214;SDS011;8723;51.502;6.918;2023-08-08T13:17:53;3.60;;;2.00;;
17214;SDS011;8723;51.502;6.918;2023-08-08T13:20:21;4.30;;;1.97;;
17214;SDS011;8723;51.502;6.918;2023-08-08T13:22:49;3.22;;;1.90;;
17214;SDS011;8723;51.502;6.918;2023-08-08T13:25:16;2.63;;;1.90;;
17214;SDS011;8723;51.502;6.918;2023-08-08T13:27:43;3.95;;;2.00;;
17214;SDS011;8723;51.502;6.918;2023-08-08T13:30:11;2.90;;;1.80;;
17214;SDS011;8723;51.502;6.918;2023-08-08T13:32:40;4.07;;;2.10;;
17214;SDS011;8723;51.502;6.918;2023-08-08T13:35:07;3.13;;;1.98;;
17214;SDS011;8723;51.502;6.918;2023-08-08T13:37:34;5.77;;;2.20;;
17214;SDS011;8723;51.502;6.918;2023-08-08T13:40:02;3.45;;;2.47;;
17214;SDS011;8723;51.502;6.918;2023-08-08T13:42:29;4.18;;;2.53;;
17214;SDS011;8723;51.502;6.918;2023-08-08T13:44:56;4.18;;;2.60;;
17214;SDS011;8723;51.502;6.918;2023-08-08T13:47:24;4.40;;;2.30;;
17214;SDS011;8723;51.502;6.918;2023-08-08T13:49:51;7.38;;;3.90;;
17214;SDS011;8723;51.502;6.918;2023-08-08T13:52:18;4.40;;;2.33;;
17214;SDS011;8723;51.502;6.918;2023-08-08T13:54:45;3.65;;;2.20;;
17214;SDS011;8723;51.502;6.918;2023-08-08T13:57:13;4.03;;;2.15;;
17214;SDS011;8723;51.502;6.918;2023-08-08T13:59:40;4.53;;;1.83;;
17214;SDS011;8723;51.502;6.918;2023-08-08T14:02:07;2.67;;;1.77;;
17214;SDS011;8723;51.502;6.918;2023-08-08T14:04:34;3.60;;;1.90;;
17214;SDS011;8723;51.502;6.918;2023-08-08T14:07:01;2.80;;;1.83;;
17214;SDS011;8723;51.502;6.918;2023-08-08T14:09:28;3.28;;;1.90;;
17214;SDS011;8723;51.502;6.918;2023-08-08T14:11:54;3.07;;;1.80;;
17214;SDS011;8723;51.502;6.918;2023-08-08T14:14:22;2.22;;;1.80;;
17214;SDS011;8723;51.502;6.918;2023-08-08T14:16:49;3.67;;;2.00;;
17214;SDS011;8723;51.502;6.918;2023-08-08T14:19:16;3.60;;;2.20;;
17214;SDS011;8723;51.502;6.918;2023-08-08T14:21:43;2.88;;;1.73;;
17214;SDS011;8723;51.502;6.918;2023-08-08T14:24:10;3.17;;;1.90;;
17214;SDS011;8723;51.502;6.918;2023-08-08T14:26:37;3.58;;;2.08;;
17214;SDS011;8723;51.502;6.918;2023-08-08T14:29:03;4.10;;;2.70;;
17214;SDS011;8723;51.502;6.918;2023-08-08T14:31:32;3.95;;;2.13;;
17214;SDS011;8723;51.502;6.918;2023-08-08T14:33:58;3.75;;;2.28;;
17214;SDS011;8723;51.502;6.918;2023-08-08T14:36:25;2.13;;;1.92;;
17214;SDS011;8723;51.502;6.918;2023-08-08T14:38:52;3.58;;;2.17;;
17214;SDS011;8723;51.502;6.918;2023-08-08T14:41:19;3.22;;;2.00;;
17214;SDS011;8723;51.502;6.918;2023-08-08T14:43:46;3.60;;;1.92;;
17214;SDS011;8723;51.502;6.918;2023-08-08T14:46:13;3.10;;;1.70;;
17214;SDS011;8723;51.502;6.918;2023-08-08T14:48:41;1.45;;;1.10;;
17214;SDS011;8723;51.502;6.918;2023-08-08T14:51:08;2.97;;;1.30;;
17214;SDS011;8723;51.502;6.918;2023-08-08T14:53:34;1.50;;;1.13;;
17214;SDS011;8723;51.502;6.918;2023-08-08T14:56:01;2.17;;;1.48;;
17214;SDS011;8723;51.502;6.918;2023-08-08T14:58:28;2.00;;;1.33;;
17214;SDS011;8723;51.502;6.918;2023-08-08T15:00:55;2.00;;;1.17;;